sensor_id;sensor_type;location;lat;lon;timestamp;pressure;altitude;pressure_sealevel;temperature;humidity
39209;BME280;24929;51.982;4.664;2022-10-04T00:00:50;77926.63;;;-143.36;nan
39209;BME280;24929;51.982;4.664;2022-10-04T00:03:24;77936.66;;;-143.36;nan
39209;BME280;24929;51.982;4.664;2022-10-04T00:05:54;77920.59;;;-143.36;nan
39209;BME280;24929;51.982;4.664;2022-10-04T00:08:41;77910.56;;;-143.36;nan
39209;BME280;24929;51.982;4.664;2022-10-04T00:11:16;77914.56;;;-143.36;nan
39209;BME280;24929;51.982;4.664;2022-10-04T00:13:49;77916.56;;;-143.36;nan
39209;BME280;24929;51.982;4.664;2022-10-04T00:16:24;77914.56;;;-143.36;nan
39209;BME280;24929;51.982;4.664;2022-10-04T00:19:21;77912.56;;;-143.36;nan
39209;BME280;24929;51.982;4.664;2022-10-04T00:24:28;77910.56;;;-143.36;nan
39209;BME280;24929;51.982;4.664;2022-10-04T00:38:07;77902.53;;;-143.36;nan
39209;BME280;24929;51.982;4.664;2022-10-04T00:43:17;77896.50;;;-143.36;nan
39209;BME280;24929;51.982;4.664;2022-10-04T00:45:47;77912.56;;;-143.36;nan
39209;BME280;24929;51.982;4.664;2022-10-04T00:51:04;77940.66;;;-143.36;nan
39209;BME280;24929;51.982;4.664;2022-10-04T00:53:47;77930.63;;;-143.36;nan
39209;BME280;24929;51.982;4.664;2022-10-04T00:56:55;77934.66;;;-143.36;nan
39209;BME280;24929;51.982;4.664;2022-10-04T01:02:20;77954.72;;;-143.36;nan
39209;BME280;24929;51.982;4.664;2022-10-04T01:04:54;77936.66;;;-143.36;nan
39209;BME280;24929;51.982;4.664;2022-10-04T01:07:28;77930.63;;;-143.36;nan
39209;BME280;24929;51.982;4.664;2022-10-04T01:09:59;77932.63;;;-143.36;nan
39209;BME280;24929;51.982;4.664;2022-10-04T01:12:44;77922.59;;;-143.36;nan
39209;BME280;24929;51.982;4.664;2022-10-04T01:15:32;77926.63;;;-143.36;nan
39209;BME280;24929;51.982;4.664;2022-10-04T01:18:29;77940.66;;;-143.36;nan
39209;BME280;24929;51.982;4.664;2022-10-04T01:31:34;77956.72;;;-143.36;nan
39209;BME280;24929;51.982;4.664;2022-10-04T01:34:01;77966.75;;;-143.36;nan
39209;BME280;24929;51.982;4.664;2022-10-04T01:36:27;77984.84;;;-143.36;nan
39209;BME280;24929;51.982;4.664;2022-10-04T01:38:53;77984.84;;;-143.36;nan
39209;BME280;24929;51.982;4.664;2022-10-04T01:41:23;77980.81;;;-143.36;nan
39209;BME280;24929;51.982;4.664;2022-10-04T01:43:54;77972.78;;;-143.36;nan
39209;BME280;24929;51.982;4.664;2022-10-04T01:46:26;77972.78;;;-143.36;nan
39209;BME280;24929;51.982;4.664;2022-10-04T01:48:54;77978.81;;;-143.36;nan
39209;BME280;24929;51.982;4.664;2022-10-04T01:51:30;77964.75;;;-143.36;nan
39209;BME280;24929;51.982;4.664;2022-10-04T01:54:08;77996.88;;;-143.36;nan
39209;BME280;24929;51.982;4.664;2022-10-04T01:57:01;77966.75;;;-143.36;nan
39209;BME280;24929;51.982;4.664;2022-10-04T01:59:40;77972.78;;;-143.36;nan
39209;BME280;24929;51.982;4.664;2022-10-04T02:04:56;77994.88;;;-143.36;nan
39209;BME280;24929;51.982;4.664;2022-10-04T02:07:23;77992.84;;;-143.36;nan
39209;BME280;24929;51.982;4.664;2022-10-04T02:09:55;77976.81;;;-143.36;nan
39209;BME280;24929;51.982;4.664;2022-10-04T02:12:25;77990.84;;;-143.36;nan
39209;BME280;24929;51.982;4.664;2022-10-04T02:14:53;77992.84;;;-143.36;nan
39209;BME280;24929;51.982;4.664;2022-10-04T02:17:22;77984.84;;;-143.36;nan
39209;BME280;24929;51.982;4.664;2022-10-04T02:19:50;77990.84;;;-143.36;nan
39209;BME280;24929;51.982;4.664;2022-10-04T02:22:16;77992.84;;;-143.36;nan
39209;BME280;24929;51.982;4.664;2022-10-04T02:24:46;77992.84;;;-143.36;nan
39209;BME280;24929;51.982;4.664;2022-10-04T02:27:13;78002.91;;;-143.36;nan
39209;BME280;24929;51.982;4.664;2022-10-04T02:29:38;77996.88;;;-143.36;nan
39209;BME280;24929;51.982;4.664;2022-10-04T02:32:05;78000.88;;;-143.36;nan
39209;BME280;24929;51.982;4.664;2022-10-04T02:34:50;78006.91;;;-143.36;nan
39209;BME280;24929;51.982;4.664;2022-10-04T02:37:20;78010.94;;;-143.36;nan
39209;BME280;24929;51.982;4.664;2022-10-04T02:39:51;78006.91;;;-143.36;nan
39209;BME280;24929;51.982;4.664;2022-10-04T02:42:30;78012.94;;;-143.36;nan
39209;BME280;24929;51.982;4.664;2022-10-04T02:45:08;78010.94;;;-143.36;nan
39209;BME280;24929;51.982;4.664;2022-10-04T02:47:46;78000.88;;;-143.36;nan
39209;BME280;24929;51.982;4.664;2022-10-04T02:50:28;77994.88;;;-143.36;nan
39209;BME280;24929;51.982;4.664;2022-10-04T02:55:38;78014.94;;;-143.36;nan
39209;BME280;24929;51.982;4.664;2022-10-04T02:58:08;77998.88;;;-143.36;nan
39209;BME280;24929;51.982;4.664;2022-10-04T03:00:45;77986.84;;;-143.36;nan
39209;BME280;24929;51.982;4.664;2022-10-04T03:03:28;77974.78;;;-143.36;nan
39209;BME280;24929;51.982;4.664;2022-10-04T03:06:05;77986.84;;;-143.36;nan
39209;BME280;24929;51.982;4.664;2022-10-04T03:08:45;77990.84;;;-143.36;nan
39209;BME280;24929;51.982;4.664;2022-10-04T03:11:12;78002.91;;;-143.36;nan
39209;BME280;24929;51.982;4.664;2022-10-04T03:13:44;77998.88;;;-143.36;nan
39209;BME280;24929;51.982;4.664;2022-10-04T03:16:11;78014.94;;;-143.36;nan
39209;BME280;24929;51.982;4.664;2022-10-04T03:18:37;78024.97;;;-143.36;nan
39209;BME280;24929;51.982;4.664;2022-10-04T03:21:07;78002.91;;;-143.36;nan
39209;BME280;24929;51.982;4.664;2022-10-04T03:23:34;78029.00;;;-143.36;nan
39209;BME280;24929;51.982;4.664;2022-10-04T03:26:04;78008.91;;;-143.36;nan
39209;BME280;24929;51.982;4.664;2022-10-04T03:28:37;78014.94;;;-143.36;nan
39209;BME280;24929;51.982;4.664;2022-10-04T03:31:03;78010.94;;;-143.36;nan
39209;BME280;24929;51.982;4.664;2022-10-04T03:33:29;78006.91;;;-143.36;nan
39209;BME280;24929;51.982;4.664;2022-10-04T03:35:56;78002.91;;;-143.36;nan
39209;BME280;24929;51.982;4.664;2022-10-04T03:38:23;78008.91;;;-143.36;nan
39209;BME280;24929;51.982;4.664;2022-10-04T03:40:58;78004.91;;;-143.36;nan
39209;BME280;24929;51.982;4.664;2022-10-04T03:43:30;78014.94;;;-143.36;nan
39209;BME280;24929;51.982;4.664;2022-10-04T03:45:59;78016.94;;;-143.36;nan
39209;BME280;24929;51.982;4.664;2022-10-04T03:48:31;78020.97;;;-143.36;nan
39209;BME280;24929;51.982;4.664;2022-10-04T03:50:59;78014.94;;;-143.36;nan
39209;BME280;24929;51.982;4.664;2022-10-04T03:53:30;78014.94;;;-143.36;nan
39209;BME280;24929;51.982;4.664;2022-10-04T03:55:57;78010.94;;;-143.36;nan
39209;BME280;24929;51.982;4.664;2022-10-04T03:58:25;78008.91;;;-143.36;nan
39209;BME280;24929;51.982;4.664;2022-10-04T04:03:49;78016.94;;;-143.36;nan
39209;BME280;24929;51.982;4.664;2022-10-04T04:06:17;78010.94;;;-143.36;nan
39209;BME280;24929;51.982;4.664;2022-10-04T04:08:46;78014.94;;;-143.36;nan
39209;BME280;24929;51.982;4.664;2022-10-04T04:11:17;78027.00;;;-143.36;nan
39209;BME280;24929;51.982;4.664;2022-10-04T04:14:14;78031.00;;;-143.36;nan
39209;BME280;24929;51.982;4.664;2022-10-04T04:16:39;78053.09;;;-143.36;nan
39209;BME280;24929;51.982;4.664;2022-10-04T04:19:11;78035.03;;;-143.36;nan
39209;BME280;24929;51.982;4.664;2022-10-04T04:21:37;78031.00;;;-143.36;nan
39209;BME280;24929;51.982;4.664;2022-10-04T04:24:23;78024.97;;;-143.36;nan
39209;BME280;24929;51.982;4.664;2022-10-04T04:26:55;78014.94;;;-143.36;nan
39209;BME280;24929;51.982;4.664;2022-10-04T04:29:26;78039.03;;;-143.36;nan
39209;BME280;24929;51.982;4.664;2022-10-04T04:31:58;78039.03;;;-143.36;nan
39209;BME280;24929;51.982;4.664;2022-10-04T04:34:27;78045.06;;;-143.36;nan
39209;BME280;24929;51.982;4.664;2022-10-04T04:37:03;78031.00;;;-143.36;nan
39209;BME280;24929;51.982;4.664;2022-10-04T04:39:30;78041.03;;;-143.36;nan
39209;BME280;24929;51.982;4.664;2022-10-04T04:42:11;78033.00;;;-143.36;nan
39209;BME280;24929;51.982;4.664;2022-10-04T04:44:44;78035.03;;;-143.36;nan
39209;BME280;24929;51.982;4.664;2022-10-04T04:47:22;78037.03;;;-143.36;nan
39209;BME280;24929;51.982;4.664;2022-10-04T04:49:50;78057.09;;;-143.36;nan
39209;BME280;24929;51.982;4.664;2022-10-04T04:52:18;78045.06;;;-143.36;nan
39209;BME280;24929;51.982;4.664;2022-10-04T04:54:45;78057.09;;;-143.36;nan
39209;BME280;24929;51.982;4.664;2022-10-04T04:57:15;78041.03;;;-143.36;nan
39209;BME280;24929;51.982;4.664;2022-10-04T04:59:44;78045.06;;;-143.36;nan
39209;BME280;24929;51.982;4.664;2022-10-04T05:02:34;78016.94;;;-143.36;nan
39209;BME280;24929;51.982;4.664;2022-10-04T05:05:30;78006.91;;;-143.36;nan
39209;BME280;24929;51.982;4.664;2022-10-04T05:08:18;78024.97;;;-143.36;nan
39209;BME280;24929;51.982;4.664;2022-10-04T05:13:14;78043.03;;;-143.36;nan
39209;BME280;24929;51.982;4.664;2022-10-04T05:15:40;78041.03;;;-143.36;nan
39209;BME280;24929;51.982;4.664;2022-10-04T05:18:33;78043.03;;;-143.36;nan
39209;BME280;24929;51.982;4.664;2022-10-04T05:23:37;78049.06;;;-143.36;nan
39209;BME280;24929;51.982;4.664;2022-10-04T05:26:03;78041.03;;;-143.36;nan
39209;BME280;24929;51.982;4.664;2022-10-04T05:28:40;78035.03;;;-143.36;nan
39209;BME280;24929;51.982;4.664;2022-10-04T05:31:31;78010.94;;;-143.36;nan
39209;BME280;24929;51.982;4.664;2022-10-04T05:33:59;78033.00;;;-143.36;nan
39209;BME280;24929;51.982;4.664;2022-10-04T05:36:37;78018.97;;;-143.36;nan
39209;BME280;24929;51.982;4.664;2022-10-04T05:39:28;78024.97;;;-143.36;nan
39209;BME280;24929;51.982;4.664;2022-10-04T05:42:09;78039.03;;;-143.36;nan
39209;BME280;24929;51.982;4.664;2022-10-04T05:44:45;78041.03;;;-143.36;nan
39209;BME280;24929;51.982;4.664;2022-10-04T05:47:13;78071.16;;;-143.36;nan
39209;BME280;24929;51.982;4.664;2022-10-04T05:49:41;78061.13;;;-143.36;nan
39209;BME280;24929;51.982;4.664;2022-10-04T05:52:24;78053.09;;;-143.36;nan
39209;BME280;24929;51.982;4.664;2022-10-04T06:00:43;78061.13;;;-143.36;nan
39209;BME280;24929;51.982;4.664;2022-10-04T06:13:59;78075.16;;;-143.36;nan
39209;BME280;24929;51.982;4.664;2022-10-04T06:16:52;78045.06;;;-143.36;nan
39209;BME280;24929;51.982;4.664;2022-10-04T06:19:54;78039.03;;;-143.36;nan
39209;BME280;24929;51.982;4.664;2022-10-04T06:22:26;78053.09;;;-143.36;nan
39209;BME280;24929;51.982;4.664;2022-10-04T06:25:00;78016.94;;;-143.36;nan
39209;BME280;24929;51.982;4.664;2022-10-04T06:30:18;78053.09;;;-143.36;nan
39209;BME280;24929;51.982;4.664;2022-10-04T06:33:06;78027.00;;;-143.36;nan
39209;BME280;24929;51.982;4.664;2022-10-04T06:35:48;78010.94;;;-143.36;nan
39209;BME280;24929;51.982;4.664;2022-10-04T06:38:43;78010.94;;;-143.36;nan
39209;BME280;24929;51.982;4.664;2022-10-04T06:47:09;78004.91;;;-143.36;nan
39209;BME280;24929;51.982;4.664;2022-10-04T06:53:00;77962.75;;;-143.36;nan
39209;BME280;24929;51.982;4.664;2022-10-04T07:01:07;77922.59;;;-143.36;nan
39209;BME280;24929;51.982;4.664;2022-10-04T07:04:04;77876.44;;;-143.36;nan
39209;BME280;24929;51.982;4.664;2022-10-04T07:06:46;77888.47;;;-143.36;nan
39209;BME280;24929;51.982;4.664;2022-10-04T07:09:22;77874.41;;;-143.36;nan
39209;BME280;24929;51.982;4.664;2022-10-04T07:11:52;77852.34;;;-143.36;nan
39209;BME280;24929;51.982;4.664;2022-10-04T07:14:26;77826.25;;;-143.36;nan
39209;BME280;24929;51.982;4.664;2022-10-04T07:17:00;77814.19;;;-143.36;nan
39209;BME280;24929;51.982;4.664;2022-10-04T07:19:36;77766.03;;;-143.36;nan
39209;BME280;24929;51.982;4.664;2022-10-04T07:28:16;77671.69;;;-143.36;nan
39209;BME280;24929;51.982;4.664;2022-10-04T07:31:09;77603.44;;;-143.36;nan
39209;BME280;24929;51.982;4.664;2022-10-04T07:33:47;77511.09;;;-143.36;nan
39209;BME280;24929;51.982;4.664;2022-10-04T07:39:54;77452.88;;;-143.36;nan
39209;BME280;24929;51.982;4.664;2022-10-04T07:45:16;77491.03;;;-143.36;nan
39209;BME280;24929;51.982;4.664;2022-10-04T07:47:44;77517.13;;;-143.36;nan
39209;BME280;24929;51.982;4.664;2022-10-04T07:50:28;77481.00;;;-143.36;nan
39209;BME280;24929;51.982;4.664;2022-10-04T07:53:15;77478.97;;;-143.36;nan
39209;BME280;24929;51.982;4.664;2022-10-04T07:55:55;77481.00;;;-143.36;nan
39209;BME280;24929;51.982;4.664;2022-10-04T07:58:51;77462.94;;;-143.36;nan
39209;BME280;24929;51.982;4.664;2022-10-04T08:01:32;77491.03;;;-143.36;nan
39209;BME280;24929;51.982;4.664;2022-10-04T08:10:32;77487.00;;;-143.36;nan
39209;BME280;24929;51.982;4.664;2022-10-04T08:13:07;77470.97;;;-143.36;nan
39209;BME280;24929;51.982;4.664;2022-10-04T08:15:41;77521.13;;;-143.36;nan
39209;BME280;24929;51.982;4.664;2022-10-04T08:18:22;77503.06;;;-143.36;nan
39209;BME280;24929;51.982;4.664;2022-10-04T08:21:25;77483.00;;;-143.36;nan
39209;BME280;24929;51.982;4.664;2022-10-04T08:30:12;77434.81;;;-143.36;nan
39209;BME280;24929;51.982;4.664;2022-10-04T08:33:04;77440.84;;;-143.36;nan
39209;BME280;24929;51.982;4.664;2022-10-04T08:35:38;77370.59;;;-143.36;nan
39209;BME280;24929;51.982;4.664;2022-10-04T08:38:31;77374.63;;;-143.36;nan
39209;BME280;24929;51.982;4.664;2022-10-04T08:46:41;77378.63;;;-143.36;nan
39209;BME280;24929;51.982;4.664;2022-10-04T08:49:38;77358.56;;;-143.36;nan
39209;BME280;24929;51.982;4.664;2022-10-04T09:12:34;77308.38;;;-143.36;nan
39209;BME280;24929;51.982;4.664;2022-10-04T09:15:35;77314.41;;;-143.36;nan
39209;BME280;24929;51.982;4.664;2022-10-04T09:20:55;77264.22;;;-143.36;nan
39209;BME280;24929;51.982;4.664;2022-10-04T09:23:37;77266.22;;;-143.36;nan
39209;BME280;24929;51.982;4.664;2022-10-04T09:26:42;77248.16;;;-143.36;nan
39209;BME280;24929;51.982;4.664;2022-10-04T09:29:40;77214.03;;;-143.36;nan
39209;BME280;24929;51.982;4.664;2022-10-04T09:32:36;77193.97;;;-143.36;nan
39209;BME280;24929;51.982;4.664;2022-10-04T09:35:31;77155.84;;;-143.36;nan
39209;BME280;24929;51.982;4.664;2022-10-04T09:59:55;77117.72;;;-143.36;nan
39209;BME280;24929;51.982;4.664;2022-10-04T10:08:45;77165.88;;;-143.36;nan
39209;BME280;24929;51.982;4.664;2022-10-04T10:18:33;77149.81;;;-143.36;nan
39209;BME280;24929;51.982;4.664;2022-10-04T10:36:44;77017.34;;;-143.36;nan
39209;BME280;24929;51.982;4.664;2022-10-04T10:39:21;76969.19;;;-143.36;nan
39209;BME280;24929;51.982;4.664;2022-10-04T10:47:31;76961.16;;;-143.36;nan
39209;BME280;24929;51.982;4.664;2022-10-04T10:52:59;76884.91;;;-143.36;nan
39209;BME280;24929;51.982;4.664;2022-10-04T10:56:01;76876.88;;;-143.36;nan
39209;BME280;24929;51.982;4.664;2022-10-04T11:18:18;76812.66;;;-143.36;nan
39209;BME280;24929;51.982;4.664;2022-10-04T11:32:30;76908.97;;;-143.36;nan
39209;BME280;24929;51.982;4.664;2022-10-04T11:35:57;76902.97;;;-143.36;nan
39209;BME280;24929;51.982;4.664;2022-10-04T11:38:33;76925.03;;;-143.36;nan
39209;BME280;24929;51.982;4.664;2022-10-04T11:41:28;76917.00;;;-143.36;nan
39209;BME280;24929;51.982;4.664;2022-10-04T12:00:18;76816.66;;;-143.36;nan
39209;BME280;24929;51.982;4.664;2022-10-04T12:08:22;76756.47;;;-143.36;nan
39209;BME280;24929;51.982;4.664;2022-10-04T12:19:53;76698.25;;;-143.36;nan
39209;BME280;24929;51.982;4.664;2022-10-04T12:22:28;76682.22;;;-143.36;nan
39209;BME280;24929;51.982;4.664;2022-10-04T12:28:04;76714.31;;;-143.36;nan
39209;BME280;24929;51.982;4.664;2022-10-04T12:33:23;76676.19;;;-143.36;nan
39209;BME280;24929;51.982;4.664;2022-10-04T12:36:06;76668.16;;;-143.36;nan
39209;BME280;24929;51.982;4.664;2022-10-04T12:45:20;76652.09;;;-143.36;nan
39209;BME280;24929;51.982;4.664;2022-10-04T12:47:49;76652.09;;;-143.36;nan
39209;BME280;24929;51.982;4.664;2022-10-04T12:50:30;76632.03;;;-143.36;nan
39209;BME280;24929;51.982;4.664;2022-10-04T12:55:59;76431.38;;;-143.36;nan
39209;BME280;24929;51.982;4.664;2022-10-04T12:59:06;76421.34;;;-143.36;nan
39209;BME280;24929;51.982;4.664;2022-10-04T13:02:34;76355.13;;;-143.36;nan
39209;BME280;24929;51.982;4.664;2022-10-04T13:07:18;76561.81;;;-143.36;nan
39209;BME280;24929;51.982;4.664;2022-10-04T13:13:10;76587.88;;;-143.36;nan
39209;BME280;24929;51.982;4.664;2022-10-04T13:15:50;76575.84;;;-143.36;nan
39209;BME280;24929;51.982;4.664;2022-10-04T13:23:54;76555.78;;;-143.36;nan
39209;BME280;24929;51.982;4.664;2022-10-04T13:29:58;76575.84;;;-143.36;nan
39209;BME280;24929;51.982;4.664;2022-10-04T13:32:41;76539.72;;;-143.36;nan
39209;BME280;24929;51.982;4.664;2022-10-04T13:35:17;76555.78;;;-143.36;nan
39209;BME280;24929;51.982;4.664;2022-10-04T13:54:21;76491.56;;;-143.36;nan
39209;BME280;24929;51.982;4.664;2022-10-04T13:57:30;76483.53;;;-143.36;nan
39209;BME280;24929;51.982;4.664;2022-10-04T14:00:13;76527.69;;;-143.36;nan
39209;BME280;24929;51.982;4.664;2022-10-04T14:03:07;76481.53;;;-143.36;nan
39209;BME280;24929;51.982;4.664;2022-10-04T14:11:41;76507.63;;;-143.36;nan
39209;BME280;24929;51.982;4.664;2022-10-04T14:36:04;76630.03;;;-143.36;nan
39209;BME280;24929;51.982;4.664;2022-10-04T14:41:55;76375.19;;;-143.36;nan
39209;BME280;24929;51.982;4.664;2022-10-04T14:50:19;76634.03;;;-143.36;nan
39209;BME280;24929;51.982;4.664;2022-10-04T14:52:57;76624.00;;;-143.36;nan
39209;BME280;24929;51.982;4.664;2022-10-04T14:58:30;76607.97;;;-143.36;nan
39209;BME280;24929;51.982;4.664;2022-10-04T15:01:18;76644.06;;;-143.36;nan
39209;BME280;24929;51.982;4.664;2022-10-04T15:09:17;76674.19;;;-143.36;nan
39209;BME280;24929;51.982;4.664;2022-10-04T15:11:51;76700.28;;;-143.36;nan
39209;BME280;24929;51.982;4.664;2022-10-04T15:14:24;76700.28;;;-143.36;nan
39209;BME280;24929;51.982;4.664;2022-10-04T15:24:30;76690.22;;;-143.36;nan
39209;BME280;24929;51.982;4.664;2022-10-04T15:30:28;76678.19;;;-143.36;nan
39209;BME280;24929;51.982;4.664;2022-10-04T15:36:22;76676.19;;;-143.36;nan
39209;BME280;24929;51.982;4.664;2022-10-04T15:52:50;76716.31;;;-143.36;nan
39209;BME280;24929;51.982;4.664;2022-10-04T15:55:21;76710.31;;;-143.36;nan
39209;BME280;24929;51.982;4.664;2022-10-04T16:08:27;76764.50;;;-143.36;nan
39209;BME280;24929;51.982;4.664;2022-10-04T16:16:24;76782.53;;;-143.36;nan
39209;BME280;24929;51.982;4.664;2022-10-04T16:19:07;76784.56;;;-143.36;nan
39209;BME280;24929;51.982;4.664;2022-10-04T16:31:54;76812.66;;;-143.36;nan
39209;BME280;24929;51.982;4.664;2022-10-04T16:36:53;76816.66;;;-143.36;nan
39209;BME280;24929;51.982;4.664;2022-10-04T16:42:45;76798.59;;;-143.36;nan
39209;BME280;24929;51.982;4.664;2022-10-04T16:45:35;76818.66;;;-143.36;nan
39209;BME280;24929;51.982;4.664;2022-10-04T17:10:16;76828.72;;;-143.36;nan
39209;BME280;24929;51.982;4.664;2022-10-04T17:12:58;76856.81;;;-143.36;nan
39209;BME280;24929;51.982;4.664;2022-10-04T17:15:38;76840.75;;;-143.36;nan
39209;BME280;24929;51.982;4.664;2022-10-04T17:20:58;76838.75;;;-143.36;nan
39209;BME280;24929;51.982;4.664;2022-10-04T17:45:41;76832.72;;;-143.36;nan
39209;BME280;24929;51.982;4.664;2022-10-04T17:54:16;76842.75;;;-143.36;nan
39209;BME280;24929;51.982;4.664;2022-10-04T17:59:29;76858.81;;;-143.36;nan
39209;BME280;24929;51.982;4.664;2022-10-04T18:02:27;76860.81;;;-143.36;nan
39209;BME280;24929;51.982;4.664;2022-10-04T18:04:57;76854.78;;;-143.36;nan
39209;BME280;24929;51.982;4.664;2022-10-04T18:07:32;76858.81;;;-143.36;nan
39209;BME280;24929;51.982;4.664;2022-10-04T18:12:57;76848.78;;;-143.36;nan
39209;BME280;24929;51.982;4.664;2022-10-04T18:15:37;76856.81;;;-143.36;nan
39209;BME280;24929;51.982;4.664;2022-10-04T18:20:39;76876.88;;;-143.36;nan
39209;BME280;24929;51.982;4.664;2022-10-04T18:23:27;76888.91;;;-143.36;nan
39209;BME280;24929;51.982;4.664;2022-10-04T18:25:59;76862.81;;;-143.36;nan
39209;BME280;24929;51.982;4.664;2022-10-04T18:28:25;76892.94;;;-143.36;nan
39209;BME280;24929;51.982;4.664;2022-10-04T18:30:51;76904.97;;;-143.36;nan
39209;BME280;24929;51.982;4.664;2022-10-04T18:33:23;76872.84;;;-143.36;nan
39209;BME280;24929;51.982;4.664;2022-10-04T18:36:12;76858.81;;;-143.36;nan
39209;BME280;24929;51.982;4.664;2022-10-04T18:38:41;76872.84;;;-143.36;nan
39209;BME280;24929;51.982;4.664;2022-10-04T18:41:19;76876.88;;;-143.36;nan
39209;BME280;24929;51.982;4.664;2022-10-04T18:44:04;76846.78;;;-143.36;nan
39209;BME280;24929;51.982;4.664;2022-10-04T18:46:38;76842.75;;;-143.36;nan
39209;BME280;24929;51.982;4.664;2022-10-04T18:49:16;76834.72;;;-143.36;nan
39209;BME280;24929;51.982;4.664;2022-10-04T18:57:43;76840.75;;;-143.36;nan
39209;BME280;24929;51.982;4.664;2022-10-04T19:00:39;76852.78;;;-143.36;nan
39209;BME280;24929;51.982;4.664;2022-10-04T19:06:15;76816.66;;;-143.36;nan
39209;BME280;24929;51.982;4.664;2022-10-04T19:09:11;76818.66;;;-143.36;nan
39209;BME280;24929;51.982;4.664;2022-10-04T19:11:49;76804.63;;;-143.36;nan
39209;BME280;24929;51.982;4.664;2022-10-04T19:14:31;76826.69;;;-143.36;nan
39209;BME280;24929;51.982;4.664;2022-10-04T19:17:05;76828.72;;;-143.36;nan
39209;BME280;24929;51.982;4.664;2022-10-04T19:25:28;76812.66;;;-143.36;nan
39209;BME280;24929;51.982;4.664;2022-10-04T19:30:26;76830.72;;;-143.36;nan
39209;BME280;24929;51.982;4.664;2022-10-04T19:33:18;76820.69;;;-143.36;nan
39209;BME280;24929;51.982;4.664;2022-10-04T19:38:59;76818.66;;;-143.36;nan
39209;BME280;24929;51.982;4.664;2022-10-04T19:44:12;76854.78;;;-143.36;nan
39209;BME280;24929;51.982;4.664;2022-10-04T19:46:42;76874.88;;;-143.36;nan
39209;BME280;24929;51.982;4.664;2022-10-04T19:52:35;76862.81;;;-143.36;nan
39209;BME280;24929;51.982;4.664;2022-10-04T19:55:30;76860.81;;;-143.36;nan
39209;BME280;24929;51.982;4.664;2022-10-04T20:00:40;76878.88;;;-143.36;nan
39209;BME280;24929;51.982;4.664;2022-10-04T20:03:10;76698.25;;;-143.36;nan
39209;BME280;24929;51.982;4.664;2022-10-04T20:05:45;76658.13;;;-143.36;nan
39209;BME280;24929;51.982;4.664;2022-10-04T20:08:13;76868.84;;;-143.36;nan
39209;BME280;24929;51.982;4.664;2022-10-04T20:10:39;76906.97;;;-143.36;nan
39209;BME280;24929;51.982;4.664;2022-10-04T20:18:49;76886.91;;;-143.36;nan
39209;BME280;24929;51.982;4.664;2022-10-04T20:21:10;76921.03;;;-143.36;nan
39209;BME280;24929;51.982;4.664;2022-10-04T20:23:49;76896.94;;;-143.36;nan
39209;BME280;24929;51.982;4.664;2022-10-04T20:26:36;76884.91;;;-143.36;nan
39209;BME280;24929;51.982;4.664;2022-10-04T20:32:00;76911.00;;;-143.36;nan
39209;BME280;24929;51.982;4.664;2022-10-04T20:34:33;76911.00;;;-143.36;nan
39209;BME280;24929;51.982;4.664;2022-10-04T20:37:00;76927.03;;;-143.36;nan
39209;BME280;24929;51.982;4.664;2022-10-04T20:44:56;76931.06;;;-143.36;nan
39209;BME280;24929;51.982;4.664;2022-10-04T20:50:00;76945.09;;;-143.36;nan
39209;BME280;24929;51.982;4.664;2022-10-04T20:52:28;76935.06;;;-143.36;nan
39209;BME280;24929;51.982;4.664;2022-10-04T20:54:55;76949.13;;;-143.36;nan
39209;BME280;24929;51.982;4.664;2022-10-04T20:57:22;76925.03;;;-143.36;nan
39209;BME280;24929;51.982;4.664;2022-10-04T20:59:50;76921.03;;;-143.36;nan
39209;BME280;24929;51.982;4.664;2022-10-04T21:02:21;76923.03;;;-143.36;nan
39209;BME280;24929;51.982;4.664;2022-10-04T21:04:48;76919.00;;;-143.36;nan
39209;BME280;24929;51.982;4.664;2022-10-04T21:07:24;76908.97;;;-143.36;nan
39209;BME280;24929;51.982;4.664;2022-10-04T21:09:51;76929.06;;;-143.36;nan
39209;BME280;24929;51.982;4.664;2022-10-04T21:12:30;76906.97;;;-143.36;nan
39209;BME280;24929;51.982;4.664;2022-10-04T21:19:55;76937.06;;;-143.36;nan
39209;BME280;24929;51.982;4.664;2022-10-04T21:29:49;76876.88;;;-143.36;nan
39209;BME280;24929;51.982;4.664;2022-10-04T21:32:18;76892.94;;;-143.36;nan
39209;BME280;24929;51.982;4.664;2022-10-04T21:34:43;76900.97;;;-143.36;nan
39209;BME280;24929;51.982;4.664;2022-10-04T21:37:08;76919.00;;;-143.36;nan
39209;BME280;24929;51.982;4.664;2022-10-04T21:39:34;76913.00;;;-143.36;nan
39209;BME280;24929;51.982;4.664;2022-10-04T21:41:59;76923.03;;;-143.36;nan
39209;BME280;24929;51.982;4.664;2022-10-04T21:44:24;76927.03;;;-143.36;nan
39209;BME280;24929;51.982;4.664;2022-10-04T21:46:50;76953.13;;;-143.36;nan
39209;BME280;24929;51.982;4.664;2022-10-04T21:49:15;76937.06;;;-143.36;nan
39209;BME280;24929;51.982;4.664;2022-10-04T21:51:40;76921.03;;;-143.36;nan
39209;BME280;24929;51.982;4.664;2022-10-04T21:54:06;76913.00;;;-143.36;nan
39209;BME280;24929;51.982;4.664;2022-10-04T21:56:31;76933.06;;;-143.36;nan
39209;BME280;24929;51.982;4.664;2022-10-04T21:58:57;76931.06;;;-143.36;nan
39209;BME280;24929;51.982;4.664;2022-10-04T22:01:23;76917.00;;;-143.36;nan
39209;BME280;24929;51.982;4.664;2022-10-04T22:03:48;76949.13;;;-143.36;nan
39209;BME280;24929;51.982;4.664;2022-10-04T22:06:14;76927.03;;;-143.36;nan
39209;BME280;24929;51.982;4.664;2022-10-04T22:08:39;76933.06;;;-143.36;nan
39209;BME280;24929;51.982;4.664;2022-10-04T22:11:05;76933.06;;;-143.36;nan
39209;BME280;24929;51.982;4.664;2022-10-04T22:13:31;76915.00;;;-143.36;nan
39209;BME280;24929;51.982;4.664;2022-10-04T22:15:57;76929.06;;;-143.36;nan
39209;BME280;24929;51.982;4.664;2022-10-04T22:18:22;76929.06;;;-143.36;nan
39209;BME280;24929;51.982;4.664;2022-10-04T22:20:48;76959.16;;;-143.36;nan
39209;BME280;24929;51.982;4.664;2022-10-04T22:23:20;76919.00;;;-143.36;nan
39209;BME280;24929;51.982;4.664;2022-10-04T22:25:45;76917.00;;;-143.36;nan
39209;BME280;24929;51.982;4.664;2022-10-04T22:30:47;76927.03;;;-143.36;nan
39209;BME280;24929;51.982;4.664;2022-10-04T22:33:35;76772.50;;;-143.36;nan